createdAt,value
2023-01-20T00:01:27.125Z,15.13
2023-01-20T00:03:55.474Z,15.60
2023-01-20T00:06:23.191Z,15.20
2023-01-20T00:08:54.178Z,15.77
2023-01-20T00:11:21.429Z,15.98
2023-01-20T00:13:48.607Z,16.08
2023-01-20T00:16:15.485Z,15.65
2023-01-20T00:18:42.268Z,16.17
2023-01-20T00:21:14.153Z,16.92
2023-01-20T00:23:41.266Z,15.75
2023-01-20T00:26:16.345Z,17.23
2023-01-20T00:28:43.698Z,16.52
2023-01-20T00:31:20.792Z,16.88
2023-01-20T00:33:49.199Z,16.50
2023-01-20T00:36:17.577Z,17.42
2023-01-20T00:38:44.705Z,17.20
2023-01-20T00:41:11.614Z,17.85
2023-01-20T00:43:38.948Z,16.13
2023-01-20T00:46:06.439Z,16.10
2023-01-20T00:48:33.945Z,16.65
2023-01-20T00:51:01.037Z,17.00
2023-01-20T00:53:28.041Z,16.88
2023-01-20T00:55:54.878Z,16.10
2023-01-20T00:58:21.982Z,17.15
2023-01-20T01:00:53.023Z,16.38
2023-01-20T01:03:20.176Z,16.25
2023-01-20T01:05:47.241Z,18.10
2023-01-20T01:08:14.461Z,17.08
2023-01-20T01:10:41.258Z,16.60
2023-01-20T01:13:08.340Z,17.13
2023-01-20T01:15:35.502Z,17.00
2023-01-20T01:18:02.811Z,16.77
2023-01-20T01:20:29.949Z,17.33
2023-01-20T01:22:56.756Z,16.30
2023-01-20T01:25:24.000Z,18.45
2023-01-20T01:27:50.912Z,16.63
2023-01-20T01:30:17.782Z,17.23
2023-01-20T01:32:44.429Z,16.52
2023-01-20T01:35:11.160Z,16.95
2023-01-20T01:37:37.945Z,17.17
2023-01-20T01:40:05.235Z,16.80
2023-01-20T01:42:31.919Z,17.55
2023-01-20T01:45:11.408Z,17.88
2023-01-20T01:47:42.583Z,17.90
2023-01-20T01:50:14.307Z,17.33
2023-01-20T01:52:44.487Z,16.98
2023-01-20T01:55:12.231Z,17.50
2023-01-20T01:57:39.159Z,16.98
2023-01-20T02:00:07.053Z,17.48
2023-01-20T02:02:33.802Z,16.60
2023-01-20T02:05:00.607Z,17.77
2023-01-20T02:07:27.507Z,18.42
2023-01-20T02:09:54.334Z,17.27
2023-01-20T02:12:22.148Z,17.02
2023-01-20T02:14:54.689Z,16.15
2023-01-20T02:17:44.091Z,17.27
2023-01-20T02:20:24.120Z,17.48
2023-01-20T02:22:53.769Z,15.98
2023-01-20T02:25:20.399Z,17.90
2023-01-20T02:28:05.828Z,17.67
2023-01-20T02:30:54.368Z,17.98
2023-01-20T02:33:56.018Z,19.30
2023-01-20T02:36:31.867Z,17.95
2023-01-20T02:39:06.489Z,17.83
2023-01-20T02:41:54.514Z,17.90
2023-01-20T02:44:31.214Z,18.98
2023-01-20T02:47:04.100Z,16.83
2023-01-20T02:49:39.206Z,18.17
2023-01-20T02:52:18.681Z,16.88
2023-01-20T02:54:49.772Z,17.23
2023-01-20T02:57:22.783Z,17.75
2023-01-20T02:59:53.745Z,17.25
2023-01-20T03:02:24.434Z,16.35
2023-01-20T03:04:57.951Z,16.33
2023-01-20T03:07:27.395Z,15.82
2023-01-20T03:09:58.692Z,16.30
2023-01-20T03:12:36.121Z,15.10
2023-01-20T03:15:03.435Z,16.33
2023-01-20T03:17:30.195Z,16.00
2023-01-20T03:19:57.021Z,16.35
2023-01-20T03:22:23.797Z,16.73
2023-01-20T03:24:51.057Z,16.98
2023-01-20T03:27:17.923Z,17.00
2023-01-20T03:29:44.728Z,16.67
2023-01-20T03:32:12.925Z,17.38
2023-01-20T03:34:42.894Z,17.65
2023-01-20T03:37:12.331Z,18.10
2023-01-20T03:39:39.997Z,16.40
2023-01-20T03:42:39.459Z,17.20
2023-01-20T03:45:09.425Z,15.98
2023-01-20T03:47:57.475Z,16.77
2023-01-20T03:50:40.937Z,16.38
2023-01-20T03:53:24.650Z,16.47
2023-01-20T03:56:10.626Z,15.90
2023-01-20T03:58:40.726Z,15.65
2023-01-20T04:01:18.747Z,15.65
2023-01-20T04:03:48.778Z,16.13
2023-01-20T04:06:17.892Z,16.95
2023-01-20T04:08:56.490Z,16.42
2023-01-20T04:11:23.640Z,16.05
2023-01-20T04:13:50.939Z,17.33
2023-01-20T04:16:19.125Z,17.70
2023-01-20T04:18:48.552Z,17.20
2023-01-20T04:21:29.089Z,16.83
2023-01-20T04:24:03.477Z,16.67
2023-01-20T04:26:30.191Z,17.35
2023-01-20T04:28:56.881Z,16.38
2023-01-20T04:31:30.574Z,17.08
2023-01-20T04:33:57.970Z,16.52
2023-01-20T04:36:24.694Z,17.10
2023-01-20T04:38:51.446Z,16.13
2023-01-20T04:41:18.196Z,16.42
2023-01-20T04:43:46.054Z,17.10
2023-01-20T04:46:16.521Z,16.98
2023-01-20T04:48:44.778Z,15.52
2023-01-20T04:51:11.583Z,17.13
2023-01-20T04:53:38.324Z,17.38
2023-01-20T04:56:10.021Z,16.70
2023-01-20T04:58:36.694Z,15.70
2023-01-20T05:01:03.369Z,16.50
2023-01-20T05:03:30.185Z,16.73
2023-01-20T05:05:56.904Z,16.83
2023-01-20T05:08:23.627Z,17.20
2023-01-20T05:10:50.448Z,16.52
2023-01-20T05:13:17.144Z,15.98
2023-01-20T05:15:44.411Z,17.55
2023-01-20T05:18:11.148Z,17.42
2023-01-20T05:20:37.851Z,18.23
2023-01-20T05:23:04.803Z,16.65
2023-01-20T05:25:31.477Z,18.25
2023-01-20T05:27:59.519Z,18.10
2023-01-20T05:30:26.309Z,16.80
2023-01-20T05:32:53.136Z,16.50
2023-01-20T05:35:20.105Z,16.02
2023-01-20T05:37:46.856Z,16.35
2023-01-20T05:40:14.116Z,16.77
2023-01-20T05:42:40.964Z,16.67
2023-01-20T05:45:09.220Z,16.50
2023-01-20T05:47:36.072Z,15.38
2023-01-20T05:50:03.460Z,16.05
2023-01-20T05:52:30.193Z,19.15
2023-01-20T05:54:56.937Z,22.80
2023-01-20T05:57:27.017Z,18.25
2023-01-20T05:59:55.575Z,17.90
2023-01-20T06:02:22.419Z,16.63
2023-01-20T06:04:49.698Z,16.67
2023-01-20T06:07:16.494Z,16.73
2023-01-20T06:09:43.198Z,16.75
2023-01-20T06:12:09.870Z,17.50
2023-01-20T06:14:36.560Z,17.25
2023-01-20T06:17:03.337Z,18.05
2023-01-20T06:19:30.078Z,18.85
2023-01-20T06:21:56.784Z,18.25
2023-01-20T06:24:23.435Z,17.73
2023-01-20T06:26:51.314Z,19.38
2023-01-20T06:29:18.170Z,17.70
2023-01-20T06:31:45.595Z,18.13
2023-01-20T06:34:12.827Z,20.83
2023-01-20T06:36:39.919Z,19.25
2023-01-20T06:39:06.669Z,20.63
2023-01-20T06:41:33.424Z,19.13
2023-01-20T06:44:00.116Z,20.05
2023-01-20T06:46:26.924Z,16.02
2023-01-20T06:49:00.236Z,18.02
2023-01-20T06:51:28.884Z,17.42
2023-01-20T06:53:56.105Z,26.25
2023-01-20T06:56:23.214Z,18.70
2023-01-20T06:58:50.317Z,17.10
2023-01-20T07:01:29.045Z,18.65
2023-01-20T07:03:55.887Z,17.88
2023-01-20T07:06:28.318Z,17.27
2023-01-20T07:08:58.581Z,16.55
2023-01-20T07:11:25.958Z,16.70
2023-01-20T07:13:52.670Z,18.00
2023-01-20T07:16:19.563Z,17.90
2023-01-20T07:18:52.025Z,18.50
2023-01-20T07:21:19.364Z,17.63
2023-01-20T07:23:46.499Z,19.55
2023-01-20T07:26:19.205Z,18.48
2023-01-20T07:28:46.844Z,17.73
2023-01-20T07:31:19.574Z,17.77
2023-01-20T07:33:46.930Z,17.50
2023-01-20T07:36:14.568Z,18.85
2023-01-20T07:38:41.276Z,18.70
2023-01-20T07:41:11.835Z,17.45
2023-01-20T07:43:38.552Z,18.90
2023-01-20T07:46:05.497Z,19.00
2023-01-20T07:48:33.411Z,17.45
2023-01-20T07:51:05.617Z,17.45
2023-01-20T07:53:38.108Z,16.90
2023-01-20T07:56:13.821Z,19.02
2023-01-20T07:58:40.646Z,18.33
2023-01-20T08:01:13.219Z,16.55
2023-01-20T08:03:40.250Z,17.85
2023-01-20T08:06:09.189Z,18.15
2023-01-20T08:08:36.145Z,18.10
2023-01-20T08:11:04.103Z,19.73
2023-01-20T08:13:31.624Z,17.38
2023-01-20T08:16:07.539Z,17.77
2023-01-20T08:18:35.616Z,18.10
2023-01-20T08:21:08.124Z,19.40
2023-01-20T08:23:36.009Z,19.20
2023-01-20T08:26:05.608Z,18.65
2023-01-20T08:28:37.516Z,18.35
2023-01-20T08:31:12.380Z,18.88
2023-01-20T08:33:42.209Z,17.65
2023-01-20T08:36:13.186Z,19.52
2023-01-20T08:38:40.627Z,18.55
2023-01-20T08:41:13.541Z,19.15
2023-01-20T08:43:40.437Z,20.60
2023-01-20T08:46:14.165Z,18.00
2023-01-20T08:48:42.531Z,19.17
2023-01-20T08:51:15.800Z,17.95
2023-01-20T08:53:43.385Z,17.15
2023-01-20T08:56:11.430Z,18.65
2023-01-20T08:58:38.251Z,20.40
2023-01-20T09:01:09.543Z,18.05
2023-01-20T09:03:36.466Z,19.13
2023-01-20T09:06:04.530Z,18.55
2023-01-20T09:08:31.332Z,18.15
2023-01-20T09:11:10.503Z,18.38
2023-01-20T09:13:37.601Z,18.48
2023-01-20T09:16:05.019Z,19.67
2023-01-20T09:18:32.736Z,19.50
2023-01-20T09:21:00.141Z,19.65
2023-01-20T09:23:26.949Z,18.08
2023-01-20T09:25:53.873Z,19.98
2023-01-20T09:28:20.770Z,19.42
2023-01-20T09:30:47.580Z,24.02
2023-01-20T09:33:15.059Z,20.90
2023-01-20T09:35:41.764Z,21.92
2023-01-20T09:38:28.571Z,17.88
2023-01-20T09:41:49.237Z,18.67
2023-01-20T09:44:27.608Z,18.17
2023-01-20T09:47:21.645Z,20.20
2023-01-20T09:50:49.912Z,23.05
2023-01-20T09:53:42.970Z,21.15
2023-01-20T09:56:16.503Z,20.63
2023-01-20T09:59:05.268Z,22.73
2023-01-20T10:01:57.129Z,20.48
2023-01-20T10:04:26.883Z,20.20
2023-01-20T10:07:22.594Z,21.80
2023-01-20T10:10:12.308Z,22.65
2023-01-20T10:13:02.077Z,21.85
2023-01-20T10:15:35.053Z,20.15
2023-01-20T10:18:14.887Z,20.75
2023-01-20T10:20:51.028Z,19.35
2023-01-20T10:23:42.862Z,21.25
2023-01-20T10:26:30.884Z,22.63
2023-01-20T10:29:07.269Z,22.27
2023-01-20T10:31:40.770Z,21.02
2023-01-20T10:34:12.671Z,19.40
2023-01-20T10:36:43.315Z,22.20
2023-01-20T10:39:49.185Z,22.25
2023-01-20T10:42:18.663Z,20.75
2023-01-20T10:44:47.040Z,21.02
2023-01-20T10:47:32.479Z,21.05
2023-01-20T10:50:02.174Z,20.63
2023-01-20T10:52:46.128Z,18.70
2023-01-20T10:56:06.555Z,20.10
2023-01-20T10:58:39.222Z,19.70
2023-01-20T11:01:10.450Z,22.35
2023-01-20T11:03:41.616Z,21.80
2023-01-20T11:06:18.192Z,21.42
2023-01-20T11:08:44.990Z,23.02
2023-01-20T11:11:17.772Z,21.52
2023-01-20T11:13:44.610Z,22.48
2023-01-20T11:16:23.066Z,20.77
2023-01-20T11:19:04.710Z,21.67
2023-01-20T11:21:35.851Z,21.80
2023-01-20T11:24:21.822Z,22.85
2023-01-20T11:26:48.587Z,23.27
2023-01-20T11:29:15.206Z,23.38
2023-01-20T11:31:50.018Z,23.90
2023-01-20T11:34:24.218Z,24.20
2023-01-20T11:39:30.769Z,22.98
2023-01-20T11:42:23.975Z,24.40
2023-01-20T11:44:50.586Z,25.88
2023-01-20T11:47:26.415Z,25.08
2023-01-20T11:50:08.028Z,26.50
2023-01-20T11:52:47.152Z,26.92
2023-01-20T11:55:24.634Z,26.92
2023-01-20T11:57:58.523Z,26.98
2023-01-20T12:00:41.093Z,26.83
2023-01-20T12:03:10.749Z,24.17
2023-01-20T12:05:49.527Z,25.25
2023-01-20T12:08:25.914Z,25.35
2023-01-20T12:10:55.526Z,27.08
2023-01-20T12:14:13.300Z,26.30
2023-01-20T12:16:40.827Z,26.23
2023-01-20T12:19:15.211Z,27.15
2023-01-20T12:21:48.023Z,27.40
2023-01-20T12:25:01.213Z,27.20
2023-01-20T12:27:28.484Z,27.80
2023-01-20T12:30:02.039Z,27.00
2023-01-20T12:32:29.794Z,28.92
2023-01-20T12:34:56.626Z,28.33
2023-01-20T12:37:43.269Z,28.23
2023-01-20T12:40:28.748Z,27.80
2023-01-20T12:43:16.557Z,28.20
2023-01-20T12:45:46.270Z,29.70
2023-01-20T12:48:46.804Z,30.90
2023-01-20T12:51:45.799Z,27.38
2023-01-20T12:54:23.731Z,28.90
2023-01-20T12:57:05.467Z,43.83
2023-01-20T12:59:59.921Z,28.20
2023-01-20T13:02:38.832Z,27.63
2023-01-20T13:05:26.914Z,27.98
2023-01-20T13:08:10.560Z,28.38
2023-01-20T13:10:51.653Z,29.52
2023-01-20T13:13:26.268Z,26.73
2023-01-20T13:15:55.684Z,29.27
2023-01-20T13:18:34.020Z,26.48
2023-01-20T13:21:00.766Z,26.67
2023-01-20T13:23:36.875Z,26.38
2023-01-20T13:26:05.890Z,26.08
2023-01-20T13:28:32.870Z,26.73
2023-01-20T13:31:01.768Z,25.88
2023-01-20T13:33:42.196Z,25.20
2023-01-20T13:36:18.494Z,25.35
2023-01-20T13:38:46.654Z,26.20
2023-01-20T13:41:51.944Z,26.92
2023-01-20T13:44:40.818Z,27.58
2023-01-20T13:47:10.853Z,27.25
2023-01-20T13:49:53.091Z,28.65
2023-01-20T13:52:51.167Z,27.65
2023-01-20T13:55:45.855Z,27.48
2023-01-20T13:58:16.312Z,26.77
2023-01-20T14:00:43.633Z,27.55
2023-01-20T14:03:30.635Z,28.02
2023-01-20T14:06:14.014Z,26.58
2023-01-20T14:08:41.827Z,26.83
2023-01-20T14:11:17.527Z,27.35
2023-01-20T14:13:53.211Z,29.80
2023-01-20T14:16:27.154Z,28.83
2023-01-20T14:19:02.397Z,29.15
2023-01-20T14:21:31.167Z,27.48
2023-01-20T14:23:58.573Z,28.05
2023-01-20T14:26:30.804Z,28.42
2023-01-20T14:28:59.863Z,27.45
2023-01-20T14:31:44.057Z,28.73
2023-01-20T14:34:26.759Z,27.85
2023-01-20T14:36:55.395Z,26.15
2023-01-20T14:39:27.425Z,27.25
2023-01-20T14:42:01.488Z,29.08
2023-01-20T14:44:32.576Z,27.42
2023-01-20T14:47:02.465Z,27.45
2023-01-20T14:49:34.637Z,28.55
2023-01-20T14:52:02.241Z,27.52
2023-01-20T14:54:36.930Z,25.23
2023-01-20T14:57:22.449Z,25.15
2023-01-20T15:00:11.230Z,27.38
2023-01-20T15:02:39.548Z,28.10
2023-01-20T15:05:51.889Z,28.48
2023-01-20T15:08:25.993Z,25.63
2023-01-20T15:11:18.159Z,27.83
2023-01-20T15:14:02.487Z,26.60
2023-01-20T15:16:36.244Z,28.80
2023-01-20T15:19:18.487Z,29.05
2023-01-20T15:21:48.125Z,29.45
2023-01-20T15:24:23.039Z,27.90
2023-01-20T15:26:52.331Z,28.02
2023-01-20T15:29:34.687Z,27.48
2023-01-20T15:32:09.873Z,28.27
2023-01-20T15:34:36.620Z,27.60
2023-01-20T15:37:09.274Z,29.38
2023-01-20T15:39:36.013Z,27.67
2023-01-20T15:42:02.926Z,28.83
2023-01-20T15:44:29.687Z,27.85
2023-01-20T15:46:57.616Z,27.20
2023-01-20T15:49:25.219Z,27.13
2023-01-20T15:51:52.221Z,26.33
2023-01-20T15:54:19.061Z,25.85
2023-01-20T15:56:45.835Z,27.63
2023-01-20T15:59:18.351Z,28.33
2023-01-20T16:01:47.211Z,27.05
2023-01-20T16:04:14.136Z,27.08
2023-01-20T16:06:41.039Z,29.13
2023-01-20T16:09:29.750Z,28.55
2023-01-20T16:11:56.585Z,27.02
2023-01-20T16:14:23.235Z,28.35
2023-01-20T16:16:50.095Z,27.52
2023-01-20T16:19:17.320Z,28.55
2023-01-20T16:21:45.603Z,28.05
2023-01-20T16:24:13.179Z,28.80
2023-01-20T16:26:40.493Z,28.13
2023-01-20T16:29:09.453Z,27.55
2023-01-20T16:31:36.413Z,27.85
2023-01-20T16:34:04.280Z,28.70
2023-01-20T16:36:31.075Z,29.27
2023-01-20T16:38:57.720Z,27.33
2023-01-20T16:41:30.865Z,29.92
2023-01-20T16:43:58.452Z,28.77
2023-01-20T16:46:29.934Z,28.60
2023-01-20T16:49:01.890Z,29.40
2023-01-20T16:51:29.509Z,28.90
2023-01-20T16:53:57.109Z,28.42
2023-01-20T16:56:27.651Z,27.65
2023-01-20T16:58:57.684Z,26.17
2023-01-20T17:01:25.577Z,26.98
2023-01-20T17:03:54.262Z,27.48
2023-01-20T17:06:23.239Z,26.65
2023-01-20T17:08:52.546Z,26.92
2023-01-20T17:11:26.404Z,26.90
2023-01-20T17:13:54.064Z,26.60
2023-01-20T17:16:21.226Z,28.83
2023-01-20T17:18:52.976Z,27.63
2023-01-20T17:21:20.875Z,28.40
2023-01-20T17:23:53.701Z,25.90
2023-01-20T17:26:20.782Z,27.05
2023-01-20T17:28:48.240Z,26.83
2023-01-20T17:31:15.067Z,27.13
2023-01-20T17:33:48.554Z,25.88
2023-01-20T17:36:16.876Z,26.02
2023-01-20T17:38:43.825Z,26.83
2023-01-20T17:41:11.565Z,25.83
2023-01-20T17:43:41.083Z,26.02
2023-01-20T17:46:19.569Z,25.48
2023-01-20T17:48:46.873Z,24.80
2023-01-20T17:51:19.363Z,25.60
2023-01-20T17:53:46.725Z,25.70
2023-01-20T17:56:14.741Z,24.55
2023-01-20T17:58:43.339Z,25.90
2023-01-20T18:01:20.005Z,39.53
2023-01-20T18:03:49.150Z,28.10
2023-01-20T18:06:17.993Z,37.33
2023-01-20T18:08:49.873Z,54.42
2023-01-20T18:11:16.591Z,39.67
2023-01-20T18:13:45.614Z,30.98
2023-01-20T18:16:14.087Z,26.65
2023-01-20T18:18:43.226Z,27.10
2023-01-20T18:21:14.399Z,27.63
2023-01-20T18:23:41.841Z,27.08
2023-01-20T18:26:09.670Z,27.45
2023-01-20T18:28:37.538Z,26.88
2023-01-20T18:31:09.734Z,26.52
2023-01-20T18:33:39.638Z,25.95
2023-01-20T18:36:07.874Z,25.88
2023-01-20T18:38:34.691Z,26.42
2023-01-20T18:41:04.135Z,28.30
2023-01-20T18:43:31.250Z,28.05
2023-01-20T18:45:58.043Z,27.15
2023-01-20T18:48:25.357Z,23.92
2023-01-20T18:50:57.961Z,23.50
2023-01-20T18:53:24.655Z,24.48
2023-01-20T18:55:51.286Z,25.05
2023-01-20T18:58:18.024Z,25.05
2023-01-20T19:00:44.671Z,24.23
2023-01-20T19:03:11.387Z,23.55
2023-01-20T19:05:38.107Z,22.95
2023-01-20T19:08:05.207Z,20.98
2023-01-20T19:10:31.965Z,21.38
2023-01-20T19:12:58.578Z,21.15
2023-01-20T19:15:25.455Z,20.50
2023-01-20T19:17:52.332Z,22.13
2023-01-20T19:20:19.096Z,21.75
2023-01-20T19:22:45.755Z,19.67
2023-01-20T19:25:12.502Z,20.55
2023-01-20T19:27:39.158Z,19.65
2023-01-20T19:30:06.684Z,19.35
2023-01-20T19:32:33.341Z,18.90
2023-01-20T19:35:00.020Z,19.33
2023-01-20T19:37:27.908Z,18.38
2023-01-20T19:39:54.563Z,18.98
2023-01-20T19:42:21.223Z,17.95
2023-01-20T19:44:47.900Z,16.70
2023-01-20T19:47:14.749Z,17.27
2023-01-20T19:49:41.932Z,18.15
2023-01-20T19:52:08.700Z,18.83
2023-01-20T19:54:36.821Z,18.13
2023-01-20T19:57:03.834Z,17.55
2023-01-20T19:59:30.575Z,18.23
2023-01-20T20:01:57.277Z,18.15
2023-01-20T20:04:25.378Z,18.20
2023-01-20T20:06:52.293Z,17.70
2023-01-20T20:09:21.142Z,18.48
2023-01-20T20:11:49.041Z,18.15
2023-01-20T20:14:19.301Z,18.00
2023-01-20T20:16:46.354Z,17.45
2023-01-20T20:19:16.188Z,19.80
2023-01-20T20:21:43.220Z,20.40
2023-01-20T20:24:15.109Z,19.27
2023-01-20T20:26:42.121Z,18.88
2023-01-20T20:29:10.236Z,19.45
2023-01-20T20:31:40.047Z,19.95
2023-01-20T20:34:08.786Z,19.42
2023-01-20T20:36:35.874Z,19.67
2023-01-20T20:39:03.965Z,19.02
2023-01-20T20:41:33.175Z,20.20
2023-01-20T20:44:01.545Z,19.67
2023-01-20T20:46:29.557Z,18.77
2023-01-20T20:48:59.410Z,19.85
2023-01-20T20:51:27.565Z,19.65
2023-01-20T20:53:58.137Z,20.15
2023-01-20T20:56:27.861Z,18.23
2023-01-20T20:59:01.820Z,16.42
2023-01-20T21:01:30.977Z,16.77
2023-01-20T21:04:00.191Z,17.25
2023-01-20T21:06:26.950Z,16.70
2023-01-20T21:08:53.597Z,17.67
2023-01-20T21:11:20.777Z,17.05
2023-01-20T21:13:49.382Z,14.82
2023-01-20T21:16:20.784Z,14.90
2023-01-20T21:18:48.253Z,14.25
2023-01-20T21:21:17.030Z,15.02
2023-01-20T21:23:47.364Z,15.35
2023-01-20T21:26:14.076Z,13.57
2023-01-20T21:28:42.604Z,15.02
2023-01-20T21:31:15.711Z,13.95
2023-01-20T21:33:45.813Z,14.17
2023-01-20T21:36:13.322Z,16.40
2023-01-20T21:38:46.306Z,15.98
2023-01-20T21:41:14.536Z,14.90
2023-01-20T21:44:02.247Z,16.13
2023-01-20T21:46:31.697Z,14.13
2023-01-20T21:49:16.884Z,14.85
2023-01-20T21:52:02.331Z,13.77
2023-01-20T21:54:30.397Z,14.02
2023-01-20T21:56:57.524Z,13.70
2023-01-20T21:59:24.288Z,15.45
2023-01-20T22:01:51.747Z,14.75
2023-01-20T22:04:18.804Z,14.88
2023-01-20T22:06:45.815Z,15.25
2023-01-20T22:09:12.815Z,15.73
2023-01-20T22:11:39.546Z,16.77
2023-01-20T22:14:06.299Z,16.42
2023-01-20T22:16:33.209Z,17.60
2023-01-20T22:19:00.025Z,15.88
2023-01-20T22:21:26.901Z,17.08
2023-01-20T22:23:53.792Z,17.40
2023-01-20T22:26:20.962Z,18.02
2023-01-20T22:28:47.602Z,18.88
2023-01-20T22:31:19.773Z,19.13
2023-01-20T22:33:53.812Z,19.58
2023-01-20T22:36:21.637Z,20.50
2023-01-20T22:38:52.980Z,19.27
2023-01-20T22:41:20.377Z,18.40
2023-01-20T22:43:48.060Z,18.08
2023-01-20T22:46:17.133Z,18.15
2023-01-20T22:48:43.870Z,18.27
2023-01-20T22:51:16.087Z,17.53
2023-01-20T22:53:43.252Z,17.30
2023-01-20T22:56:15.819Z,17.63
2023-01-20T22:58:44.305Z,17.70
2023-01-20T23:01:20.957Z,15.45
2023-01-20T23:03:48.941Z,16.40
2023-01-20T23:06:15.746Z,17.65
2023-01-20T23:08:42.560Z,16.40
2023-01-20T23:11:12.486Z,16.38
2023-01-20T23:13:39.954Z,17.73
2023-01-20T23:16:09.980Z,18.60
2023-01-20T23:18:36.971Z,17.90
2023-01-20T23:21:05.779Z,17.35
2023-01-20T23:23:32.558Z,17.80
2023-01-20T23:26:15.543Z,16.40
2023-01-20T23:28:43.610Z,16.00
2023-01-20T23:31:12.558Z,17.48
2023-01-20T23:33:40.814Z,16.52
2023-01-20T23:36:13.851Z,18.05
2023-01-20T23:38:41.073Z,16.50
2023-01-20T23:41:07.853Z,18.27
2023-01-20T23:43:34.706Z,19.50
2023-01-20T23:46:04.129Z,17.58
2023-01-20T23:48:31.489Z,17.85
2023-01-20T23:51:01.908Z,18.00
2023-01-20T23:53:31.341Z,18.97
2023-01-20T23:56:02.438Z,18.40
2023-01-20T23:58:29.561Z,18.75
